createdAt,value
2022-11-01T00:00:10.000Z,99035.25
2022-11-01T00:02:39.281Z,99032.94
2022-11-01T00:05:06.389Z,99028.34
2022-11-01T00:07:33.044Z,99026.03
2022-11-01T00:09:59.696Z,99028.13
2022-11-01T00:12:26.307Z,99022.88
2022-11-01T00:14:53.078Z,99036.03
2022-11-01T00:17:19.730Z,99027.63
2022-11-01T00:19:46.314Z,99015.78
2022-11-01T00:22:13.003Z,99017.13
2022-11-01T00:24:39.588Z,99015.47
2022-11-01T00:27:06.188Z,99015.19
2022-11-01T00:29:32.735Z,99011.72
2022-11-01T00:32:00.119Z,99018.50
2022-11-01T00:34:26.663Z,99016.38
2022-11-01T00:36:53.248Z,99012.59
2022-11-01T00:39:20.050Z,99005.94
2022-11-01T00:41:46.748Z,99008.88
2022-11-01T00:44:13.364Z,99005.28
2022-11-01T00:46:40.048Z,99002.38
2022-11-01T00:49:06.578Z,99008.78
2022-11-01T00:51:33.193Z,99006.31
2022-11-01T00:53:59.784Z,99004.22
2022-11-01T00:56:26.391Z,99011.69
2022-11-01T00:58:52.953Z,99009.69
2022-11-01T01:01:19.676Z,99005.94
2022-11-01T01:03:46.326Z,99007.63
2022-11-01T01:06:12.915Z,99012.69
2022-11-01T01:08:39.564Z,99017.16
2022-11-01T01:11:06.183Z,99016.53
2022-11-01T01:13:32.776Z,99012.31
2022-11-01T01:15:59.949Z,99024.56
2022-11-01T01:18:27.164Z,99004.53
2022-11-01T01:21:05.220Z,99012.44
2022-11-01T01:23:32.475Z,99001.78
2022-11-01T01:25:59.144Z,99011.47
2022-11-01T01:28:26.086Z,99002.97
2022-11-01T01:30:52.655Z,99002.97
2022-11-01T01:33:19.300Z,99008.28
2022-11-01T01:35:45.980Z,99008.13
2022-11-01T01:38:12.605Z,98999.47
2022-11-01T01:40:39.142Z,98994.31
2022-11-01T01:43:05.809Z,99001.16
2022-11-01T01:45:40.919Z,98996.13
2022-11-01T01:48:24.586Z,99001.22
2022-11-01T01:50:57.136Z,99009.69
2022-11-01T01:53:25.736Z,99001.28
2022-11-01T01:56:06.277Z,99003.16
2022-11-01T01:58:42.071Z,99000.13
2022-11-01T02:01:08.980Z,98993.56
2022-11-01T02:03:37.617Z,98999.22
2022-11-01T02:06:11.780Z,98998.00
2022-11-01T02:08:52.438Z,98989.84
2022-11-01T02:11:20.590Z,98987.28
2022-11-01T02:13:47.994Z,98995.00
2022-11-01T02:16:26.763Z,98995.00
2022-11-01T02:19:02.118Z,98997.41
2022-11-01T02:21:46.804Z,98985.50
2022-11-01T02:24:44.873Z,98981.38
2022-11-01T02:27:40.862Z,98981.84
2022-11-01T02:30:21.053Z,98974.31
2022-11-01T02:33:03.008Z,98971.19
2022-11-01T02:35:52.280Z,98964.53
2022-11-01T02:38:22.474Z,98971.66
2022-11-01T02:41:32.747Z,98967.09
2022-11-01T02:44:04.054Z,98975.81
2022-11-01T02:46:54.216Z,98978.66
2022-11-01T02:49:23.405Z,98979.38
2022-11-01T02:51:51.156Z,98982.03
2022-11-01T02:54:22.425Z,98975.97
2022-11-01T02:56:50.812Z,98972.34
2022-11-01T02:59:25.374Z,98983.38
2022-11-01T03:02:03.637Z,98969.41
2022-11-01T03:04:30.952Z,98980.72
2022-11-01T03:07:01.285Z,98974.56
2022-11-01T03:09:28.677Z,98978.06
2022-11-01T03:12:02.451Z,98995.34
2022-11-01T03:14:47.068Z,98987.00
2022-11-01T03:17:22.983Z,98975.56
2022-11-01T03:19:58.576Z,98973.91
2022-11-01T03:23:00.752Z,98970.91
2022-11-01T03:25:41.031Z,98984.63
2022-11-01T03:28:19.203Z,98985.63
2022-11-01T03:30:51.362Z,98988.63
2022-11-01T03:33:19.396Z,98978.72
2022-11-01T03:35:50.169Z,98978.41
2022-11-01T03:38:21.369Z,98986.53
2022-11-01T03:40:56.304Z,98987.22
2022-11-01T03:43:26.732Z,98992.19
2022-11-01T03:45:54.768Z,98989.34
2022-11-01T03:48:21.504Z,98995.19
2022-11-01T03:50:49.843Z,98995.50
2022-11-01T03:53:16.489Z,98997.34
2022-11-01T03:55:43.730Z,99004.91
2022-11-01T03:58:10.991Z,98998.00
2022-11-01T04:00:40.798Z,99000.19
2022-11-01T04:03:08.661Z,98999.69
2022-11-01T04:05:37.197Z,99004.16
2022-11-01T04:08:04.987Z,99009.16
2022-11-01T04:10:31.954Z,99004.81
2022-11-01T04:12:59.510Z,99009.56
2022-11-01T04:15:45.949Z,99006.22
2022-11-01T04:18:37.713Z,99012.53
2022-11-01T04:21:08.194Z,99018.22
2022-11-01T04:23:35.819Z,99015.47
2022-11-01T04:26:03.779Z,99018.59
2022-11-01T04:28:30.375Z,99015.38
2022-11-01T04:30:57.367Z,99001.50
2022-11-01T04:33:24.003Z,99016.44
2022-11-01T04:35:50.584Z,99016.44
2022-11-01T04:38:17.256Z,99008.06
2022-11-01T04:40:44.194Z,99015.53
2022-11-01T04:43:11.484Z,99008.41
2022-11-01T04:45:38.380Z,99007.31
2022-11-01T04:48:13.737Z,99004.41
2022-11-01T04:50:41.872Z,99017.63
2022-11-01T04:53:09.898Z,99009.25
2022-11-01T04:55:36.604Z,99013.88
2022-11-01T04:58:04.517Z,99015.34
2022-11-01T05:00:33.151Z,99009.47
2022-11-01T05:03:07.726Z,99019.69
2022-11-01T05:05:35.542Z,99018.28
2022-11-01T05:08:13.276Z,99013.06
2022-11-01T05:10:44.485Z,99008.25
2022-11-01T05:13:13.151Z,99003.50
2022-11-01T05:15:43.763Z,99007.56
2022-11-01T05:18:20.003Z,99010.66
2022-11-01T05:20:46.601Z,99011.03
2022-11-01T05:23:13.339Z,99016.88
2022-11-01T05:25:40.228Z,99010.19
2022-11-01T05:28:11.792Z,99017.63
2022-11-01T05:30:38.894Z,99016.44
2022-11-01T05:33:06.972Z,99020.38
2022-11-01T05:35:35.844Z,99018.28
2022-11-01T05:38:04.700Z,99009.72
2022-11-01T05:40:32.257Z,99005.41
2022-11-01T05:42:59.215Z,99002.25
2022-11-01T05:45:26.347Z,99007.41
2022-11-01T05:47:52.946Z,98999.81
2022-11-01T05:50:20.171Z,98997.69
2022-11-01T05:52:46.816Z,98998.22
2022-11-01T05:55:13.417Z,99003.28
2022-11-01T05:57:40.018Z,99006.97
2022-11-01T06:00:07.528Z,99008.78
2022-11-01T06:02:40.191Z,99000.25
2022-11-01T06:05:07.140Z,98999.00
2022-11-01T06:07:35.758Z,98999.00
2022-11-01T06:10:02.747Z,98996.00
2022-11-01T06:12:29.276Z,98987.69
2022-11-01T06:14:55.852Z,98995.81
2022-11-01T06:17:22.465Z,98992.88
2022-11-01T06:19:49.138Z,98999.00
2022-11-01T06:22:15.659Z,98992.88
2022-11-01T06:24:42.330Z,98999.56
2022-11-01T06:27:12.505Z,98998.13
2022-11-01T06:29:39.578Z,98999.16
2022-11-01T06:32:06.582Z,99001.56
2022-11-01T06:34:33.414Z,99007.97
2022-11-01T06:37:00.460Z,99014.84
2022-11-01T06:39:27.188Z,99026.75
2022-11-01T06:41:53.777Z,99024.34
2022-11-01T06:44:21.000Z,99025.34
2022-11-01T06:46:47.628Z,99025.94
2022-11-01T06:49:17.989Z,99035.16
2022-11-01T06:51:46.252Z,99036.69
2022-11-01T06:54:13.290Z,99040.75
2022-11-01T06:56:40.201Z,99042.56
2022-11-01T06:59:07.271Z,99046.72
2022-11-01T07:01:34.027Z,99047.13
2022-11-01T07:04:01.227Z,99056.50
2022-11-01T07:06:31.049Z,99060.94
2022-11-01T07:09:00.856Z,99059.34
2022-11-01T07:11:31.452Z,99060.66
2022-11-01T07:13:59.291Z,99064.91
2022-11-01T07:16:26.610Z,99065.91
2022-11-01T07:18:53.504Z,99077.63
2022-11-01T07:21:20.494Z,99074.97
2022-11-01T07:23:47.181Z,99079.94
2022-11-01T07:26:13.720Z,99083.28
2022-11-01T07:28:40.751Z,99084.94
2022-11-01T07:31:07.502Z,99086.03
2022-11-01T07:33:34.267Z,99076.47
2022-11-01T07:36:02.149Z,99091.59
2022-11-01T07:38:29.007Z,99098.16
2022-11-01T07:40:55.559Z,99091.06
2022-11-01T07:43:22.470Z,99094.81
2022-11-01T07:45:49.443Z,99110.03
2022-11-01T07:48:18.212Z,99113.28
2022-11-01T07:50:45.766Z,99111.53
2022-11-01T07:53:19.358Z,99104.88
2022-11-01T07:55:46.760Z,99108.38
2022-11-01T07:58:14.438Z,99112.06
2022-11-01T08:00:42.771Z,99109.66
2022-11-01T08:03:14.499Z,99117.13
2022-11-01T08:05:42.525Z,99105.13
2022-11-01T08:08:09.950Z,99110.28
2022-11-01T08:10:37.396Z,99117.03
2022-11-01T08:13:05.109Z,99118.63
2022-11-01T08:15:32.539Z,99116.69
2022-11-01T08:17:59.519Z,99111.28
2022-11-01T08:20:27.484Z,99105.00
2022-11-01T08:22:54.571Z,99118.59
2022-11-01T08:25:21.446Z,99120.34
2022-11-01T08:27:48.232Z,99113.50
2022-11-01T08:30:17.930Z,99113.34
2022-11-01T08:32:45.260Z,99120.06
2022-11-01T08:35:12.969Z,99118.97
2022-11-01T08:37:50.290Z,99124.16
2022-11-01T08:40:17.550Z,99131.47
2022-11-01T08:42:44.802Z,99130.66
2022-11-01T08:45:11.966Z,99127.22
2022-11-01T08:47:39.498Z,99131.47
2022-11-01T08:50:11.171Z,99136.72
2022-11-01T08:52:39.017Z,99129.00
2022-11-01T08:55:07.024Z,99137.31
2022-11-01T08:57:34.227Z,99127.00
2022-11-01T09:00:00.964Z,99129.56
2022-11-01T09:02:27.871Z,99135.56
2022-11-01T09:04:54.500Z,99135.28
2022-11-01T09:07:21.127Z,99132.69
2022-11-01T09:09:47.762Z,99139.63
2022-11-01T09:12:14.982Z,99146.00
2022-11-01T09:14:41.996Z,99143.88
2022-11-01T09:17:09.021Z,99151.63
2022-11-01T09:19:35.700Z,99153.25
2022-11-01T09:22:02.331Z,99151.63
2022-11-01T09:24:29.012Z,99165.25
2022-11-01T09:26:55.852Z,99168.22
2022-11-01T09:29:22.534Z,99172.22
2022-11-01T09:31:54.404Z,99168.97
2022-11-01T09:34:21.930Z,99168.97
2022-11-01T09:36:48.938Z,99173.88
2022-11-01T09:39:17.773Z,99186.03
2022-11-01T09:41:59.156Z,99178.19
2022-11-01T09:44:39.574Z,99181.53
2022-11-01T09:47:25.332Z,99171.34
2022-11-01T09:50:23.884Z,99179.88
2022-11-01T09:52:52.516Z,99174.78
2022-11-01T09:55:30.485Z,99175.44
2022-11-01T09:58:22.511Z,99170.94
2022-11-01T10:01:06.803Z,99170.84
2022-11-01T10:03:52.169Z,99177.50
2022-11-01T10:06:24.063Z,99172.44
2022-11-01T10:09:22.626Z,99175.50
2022-11-01T10:11:58.290Z,99169.59
2022-11-01T10:14:24.834Z,99175.66
2022-11-01T10:17:15.752Z,99177.50
2022-11-01T10:19:49.072Z,99173.34
2022-11-01T10:22:28.152Z,99167.44
2022-11-01T10:25:15.908Z,99173.25
2022-11-01T10:27:57.685Z,99166.41
2022-11-01T10:30:24.536Z,99167.19
2022-11-01T10:33:02.730Z,99163.41
2022-11-01T10:35:40.580Z,99169.31
2022-11-01T10:38:32.277Z,99162.84
2022-11-01T10:41:37.079Z,99170.34
2022-11-01T10:44:09.445Z,99170.25
2022-11-01T10:46:45.852Z,99164.91
2022-11-01T10:49:24.744Z,99169.38
2022-11-01T10:51:55.291Z,99170.38
2022-11-01T10:54:30.760Z,99168.19
2022-11-01T10:57:04.098Z,99172.50
2022-11-01T10:59:46.400Z,99165.59
2022-11-01T11:02:25.848Z,99168.00
2022-11-01T11:04:52.707Z,99167.25
2022-11-01T11:07:23.175Z,99168.25
2022-11-01T11:09:51.370Z,99168.19
2022-11-01T11:12:21.468Z,99170.78
2022-11-01T11:14:53.404Z,99164.13
2022-11-01T11:17:31.450Z,99163.28
2022-11-01T11:20:03.266Z,99162.44
2022-11-01T11:22:30.910Z,99165.53
2022-11-01T11:24:59.135Z,99160.97
2022-11-01T11:27:29.976Z,99159.19
2022-11-01T11:29:58.663Z,99160.44
2022-11-01T11:32:34.323Z,99155.28
2022-11-01T11:35:04.014Z,99156.09
2022-11-01T11:37:34.951Z,99146.03
2022-11-01T11:40:17.216Z,99143.38
2022-11-01T11:42:45.876Z,99136.53
2022-11-01T11:45:27.483Z,99133.13
2022-11-01T11:48:14.373Z,99131.94
2022-11-01T11:50:42.087Z,99120.75
2022-11-01T11:53:23.338Z,99119.13
2022-11-01T11:55:56.904Z,99119.66
2022-11-01T11:58:23.508Z,99118.94
2022-11-01T12:00:54.416Z,99111.44
2022-11-01T12:03:22.413Z,99114.50
2022-11-01T12:05:59.697Z,99105.84
2022-11-01T12:08:37.892Z,99098.09
2022-11-01T12:11:05.420Z,99098.09
2022-11-01T12:13:37.640Z,99095.41
2022-11-01T12:16:16.779Z,99093.31
2022-11-01T12:19:01.318Z,99092.38
2022-11-01T12:21:37.396Z,99089.72
2022-11-01T12:24:20.178Z,99096.38
2022-11-01T12:26:48.472Z,99078.63
2022-11-01T12:29:51.186Z,99081.31
2022-11-01T12:32:24.794Z,99077.66
2022-11-01T12:34:54.867Z,99075.91
2022-11-01T12:37:42.649Z,99071.81
2022-11-01T12:40:41.143Z,99058.63
2022-11-01T12:43:27.735Z,99078.28
2022-11-01T12:46:00.206Z,99065.56
2022-11-01T12:48:29.494Z,99063.63
2022-11-01T12:50:58.938Z,99057.63
2022-11-01T12:53:34.461Z,99059.94
2022-11-01T12:56:01.077Z,99057.72
2022-11-01T12:58:30.851Z,99057.47
2022-11-01T13:01:25.947Z,99056.00
2022-11-01T13:04:17.180Z,99044.44
2022-11-01T13:07:05.650Z,99041.69
2022-11-01T13:09:50.404Z,99041.47
2022-11-01T13:12:29.355Z,99046.25
2022-11-01T13:15:25.723Z,99050.81
2022-11-01T13:18:01.917Z,99051.81
2022-11-01T13:20:31.516Z,99042.75
2022-11-01T13:23:15.108Z,99047.31
2022-11-01T13:25:44.417Z,99053.28
2022-11-01T13:28:36.065Z,99045.91
2022-11-01T13:31:06.282Z,99040.81
2022-11-01T13:33:53.592Z,99021.06
2022-11-01T13:36:38.541Z,99027.81
2022-11-01T13:39:14.610Z,99023.66
2022-11-01T13:41:58.819Z,99031.13
2022-11-01T13:44:29.719Z,99031.00
2022-11-01T13:47:15.803Z,99026.69
2022-11-01T13:50:01.018Z,99026.50
2022-11-01T13:52:31.647Z,99020.41
2022-11-01T13:55:23.884Z,99023.25
2022-11-01T13:57:50.702Z,99019.88
2022-11-01T14:00:50.241Z,99013.78
2022-11-01T14:03:24.918Z,99012.94
2022-11-01T14:06:09.590Z,99017.84
2022-11-01T14:08:38.225Z,99009.03
2022-11-01T14:11:05.161Z,99015.19
2022-11-01T14:13:38.985Z,98992.41
2022-11-01T14:16:14.915Z,99014.81
2022-11-01T14:19:03.611Z,98990.63
2022-11-01T14:21:48.839Z,99008.41
2022-11-01T14:24:24.802Z,99011.44
2022-11-01T14:27:02.164Z,99008.66
2022-11-01T14:29:30.270Z,99007.84
2022-11-01T14:31:58.028Z,99008.84
2022-11-01T14:34:30.261Z,98992.28
2022-11-01T14:37:01.689Z,99019.19
2022-11-01T14:39:37.359Z,99006.28
2022-11-01T14:42:10.630Z,99008.66
2022-11-01T14:44:48.185Z,98996.84
2022-11-01T14:47:30.570Z,99007.72
2022-11-01T14:50:02.149Z,99007.72
2022-11-01T14:52:35.778Z,99006.41
2022-11-01T14:55:13.399Z,99012.50
2022-11-01T14:57:40.429Z,99009.38
2022-11-01T15:00:24.670Z,99003.47
2022-11-01T15:02:52.063Z,99008.84
2022-11-01T15:05:18.740Z,99015.75
2022-11-01T15:07:54.302Z,99002.94
2022-11-01T15:10:22.116Z,98998.72
2022-11-01T15:12:57.709Z,99000.34
2022-11-01T15:15:27.887Z,99003.88
2022-11-01T15:17:56.514Z,99014.84
2022-11-01T15:20:26.495Z,99008.00
2022-11-01T15:22:55.072Z,99018.06
2022-11-01T15:25:26.574Z,99014.47
2022-11-01T15:27:55.344Z,99017.06
2022-11-01T15:30:32.323Z,99013.63
2022-11-01T15:33:25.785Z,99016.34
2022-11-01T15:36:00.053Z,99010.66
2022-11-01T15:38:27.874Z,99008.59
2022-11-01T15:40:54.718Z,99021.50
2022-11-01T15:43:24.639Z,99020.69
2022-11-01T15:45:58.539Z,99021.81
2022-11-01T15:48:29.962Z,99028.22
2022-11-01T15:51:00.810Z,99026.09
2022-11-01T15:53:32.159Z,99024.66
2022-11-01T15:56:07.403Z,99024.66
2022-11-01T15:58:40.714Z,99027.25
2022-11-01T16:01:14.404Z,99023.91
2022-11-01T16:04:02.251Z,99024.41
2022-11-01T16:06:43.615Z,99033.50
2022-11-01T16:09:28.589Z,99040.69
2022-11-01T16:11:59.022Z,99035.91
2022-11-01T16:14:36.304Z,99049.75
2022-11-01T16:17:19.562Z,99052.53
2022-11-01T16:19:51.241Z,99050.31
2022-11-01T16:22:42.825Z,99055.56
2022-11-01T16:25:12.026Z,99051.06
2022-11-01T16:28:11.096Z,99054.84
2022-11-01T16:30:46.786Z,99055.88
2022-11-01T16:33:35.605Z,99056.97
2022-11-01T16:36:05.064Z,99056.31
2022-11-01T16:38:38.036Z,99069.34
2022-11-01T16:41:21.551Z,99063.44
2022-11-01T16:43:52.894Z,99074.06
2022-11-01T16:46:21.228Z,99083.53
2022-11-01T16:48:56.803Z,99088.63
2022-11-01T16:51:28.175Z,99099.50
2022-11-01T16:53:56.867Z,99100.06
2022-11-01T16:56:36.676Z,99093.66
2022-11-01T16:59:29.337Z,99098.91
2022-11-01T17:01:58.505Z,99106.03
2022-11-01T17:04:27.444Z,99092.38
2022-11-01T17:06:57.891Z,99098.47
2022-11-01T17:09:24.981Z,99104.28
2022-11-01T17:11:53.732Z,99114.31
2022-11-01T17:14:22.227Z,99117.09
2022-11-01T17:16:50.397Z,99113.97
2022-11-01T17:19:26.282Z,99117.91
2022-11-01T17:21:53.825Z,99117.91
2022-11-01T17:24:23.978Z,99117.91
2022-11-01T17:26:51.633Z,99114.41
2022-11-01T17:29:18.348Z,99123.91
2022-11-01T17:31:44.973Z,99131.25
2022-11-01T17:34:11.574Z,99130.59
2022-11-01T17:36:41.174Z,99132.34
2022-11-01T17:39:10.005Z,99127.38
2022-11-01T17:41:37.549Z,99140.56
2022-11-01T17:44:04.141Z,99125.19
2022-11-01T17:46:30.813Z,99136.00
2022-11-01T17:48:57.458Z,99137.09
2022-11-01T17:51:24.207Z,99139.31
2022-11-01T17:53:55.251Z,99137.00
2022-11-01T17:56:22.798Z,99141.88
2022-11-01T17:58:52.229Z,99142.56
2022-11-01T18:01:20.798Z,99146.72
2022-11-01T18:03:48.005Z,99144.31
2022-11-01T18:06:14.816Z,99146.69
2022-11-01T18:08:51.935Z,99146.69
2022-11-01T18:11:24.295Z,99149.66
2022-11-01T18:14:06.031Z,99134.66
2022-11-01T18:16:50.733Z,99144.97
2022-11-01T18:19:42.636Z,99150.59
2022-11-01T18:22:26.057Z,99149.41
2022-11-01T18:24:59.407Z,99151.94
2022-11-01T18:27:37.543Z,99147.44
2022-11-01T18:30:19.024Z,99144.88
2022-11-01T18:33:03.279Z,99147.31
2022-11-01T18:35:53.900Z,99150.53
2022-11-01T18:38:29.348Z,99139.81
2022-11-01T18:41:01.101Z,99146.81
2022-11-01T18:43:33.698Z,99148.03
2022-11-01T18:48:59.250Z,99151.63
2022-11-01T18:51:32.017Z,99148.31
2022-11-01T18:54:14.154Z,99153.22
2022-11-01T18:56:46.226Z,99151.63
2022-11-01T18:59:15.047Z,99145.16
2022-11-01T19:01:41.819Z,99148.16
2022-11-01T19:04:17.904Z,99145.81
2022-11-01T19:06:44.718Z,99139.66
2022-11-01T19:09:22.967Z,99147.38
2022-11-01T19:12:12.309Z,99141.66
2022-11-01T19:14:40.134Z,99139.00
2022-11-01T19:17:19.623Z,99127.28
2022-11-01T19:19:47.214Z,99140.72
2022-11-01T19:22:38.451Z,99128.19
2022-11-01T19:25:35.635Z,99127.50
2022-11-01T19:28:12.544Z,99122.06
2022-11-01T19:30:39.381Z,99132.00
2022-11-01T19:33:42.916Z,99137.16
2022-11-01T19:36:18.220Z,99143.50
2022-11-01T19:38:45.903Z,99139.06
2022-11-01T19:41:15.638Z,99142.50
2022-11-01T19:43:42.575Z,99141.72
2022-11-01T19:46:15.374Z,99149.47
2022-11-01T19:48:42.743Z,99143.75
2022-11-01T19:51:18.543Z,99147.22
2022-11-01T19:53:46.034Z,99149.47
2022-11-01T19:56:20.744Z,99154.28
2022-11-01T19:58:57.377Z,99153.75
2022-11-01T20:01:43.281Z,99145.44
2022-11-01T20:04:23.039Z,99143.53
2022-11-01T20:06:59.577Z,99147.47
2022-11-01T20:09:29.908Z,99157.88
2022-11-01T20:11:56.581Z,99156.03
2022-11-01T20:14:23.737Z,99150.50
2022-11-01T20:16:50.500Z,99144.69
2022-11-01T20:19:17.819Z,99157.66
2022-11-01T20:21:45.395Z,99158.72
2022-11-01T20:24:12.477Z,99149.84
2022-11-01T20:26:39.504Z,99165.41
2022-11-01T20:29:06.148Z,99160.28
2022-11-01T20:31:33.035Z,99170.28
2022-11-01T20:34:00.127Z,99167.13
2022-11-01T20:36:28.143Z,99175.84
2022-11-01T20:38:55.196Z,99182.31
2022-11-01T20:41:22.381Z,99176.16
2022-11-01T20:43:49.651Z,99172.06
2022-11-01T20:46:16.577Z,99177.84
2022-11-01T20:48:45.156Z,99183.66
2022-11-01T20:51:13.040Z,99186.22
2022-11-01T20:53:40.180Z,99191.44
2022-11-01T20:56:07.638Z,99193.38
2022-11-01T20:58:40.498Z,99193.38
2022-11-01T21:01:18.372Z,99190.09
2022-11-01T21:03:45.601Z,99186.78
2022-11-01T21:06:14.596Z,99191.41
2022-11-01T21:08:43.169Z,99182.03
2022-11-01T21:11:43.981Z,99193.84
2022-11-01T21:14:18.618Z,99188.06
2022-11-01T21:16:46.523Z,99190.22
2022-11-01T21:19:23.742Z,99194.16
2022-11-01T21:21:58.202Z,99204.63
2022-11-01T21:24:32.139Z,99202.78
2022-11-01T21:27:06.080Z,99197.97
2022-11-01T21:29:32.808Z,99197.03
2022-11-01T21:32:00.287Z,99192.13
2022-11-01T21:34:30.061Z,99192.19
2022-11-01T21:36:58.493Z,99196.28
2022-11-01T21:39:32.786Z,99183.66
2022-11-01T21:42:18.198Z,99196.53
2022-11-01T21:44:45.791Z,99192.88
2022-11-01T21:47:21.257Z,99200.09
2022-11-01T21:49:48.043Z,99197.25
2022-11-01T21:52:14.991Z,99201.75
2022-11-01T21:54:42.423Z,99193.25
2022-11-01T21:57:10.792Z,99193.50
2022-11-01T21:59:37.921Z,99193.94
2022-11-01T22:02:06.583Z,99192.81
2022-11-01T22:04:33.752Z,99186.69
2022-11-01T22:07:03.772Z,99187.50
2022-11-01T22:09:31.608Z,99186.69
2022-11-01T22:11:59.149Z,99198.72
2022-11-01T22:14:26.017Z,99195.38
2022-11-01T22:16:52.796Z,99193.28
2022-11-01T22:19:19.573Z,99192.50
2022-11-01T22:24:17.926Z,99198.44
2022-11-01T22:26:44.563Z,99202.81
2022-11-01T22:29:11.357Z,99198.03
2022-11-01T22:31:37.883Z,99194.84
2022-11-01T22:34:04.623Z,99193.72
2022-11-01T22:36:35.362Z,99184.94
2022-11-01T22:39:12.695Z,99192.97
2022-11-01T22:41:40.537Z,99193.72
2022-11-01T22:44:16.410Z,99189.44
2022-11-01T22:46:58.634Z,99195.84
2022-11-01T22:49:40.732Z,99188.88
2022-11-01T22:52:29.309Z,99181.41
2022-11-01T22:55:08.115Z,99180.69
2022-11-01T22:57:40.731Z,99176.19
2022-11-01T23:00:27.868Z,99182.31
2022-11-01T23:03:02.085Z,99189.03
2022-11-01T23:05:29.196Z,99184.63
2022-11-01T23:07:59.760Z,99183.13
2022-11-01T23:10:34.003Z,99180.78
2022-11-01T23:13:28.546Z,99182.53
2022-11-01T23:16:14.469Z,99178.06
2022-11-01T23:18:43.367Z,99170.25
2022-11-01T23:21:10.398Z,99172.00
2022-11-01T23:23:40.887Z,99168.75
2022-11-01T23:26:08.188Z,99179.25
2022-11-01T23:28:37.119Z,99175.00
2022-11-01T23:31:05.050Z,99174.03
2022-11-01T23:33:50.366Z,99173.72
2022-11-01T23:36:32.092Z,99172.38
2022-11-01T23:39:02.311Z,99178.28
2022-11-01T23:41:40.895Z,99171.53
2022-11-01T23:44:30.722Z,99159.34
2022-11-01T23:47:08.010Z,99170.41
2022-11-01T23:49:35.520Z,99152.69
2022-11-01T23:52:11.383Z,99162.00
2022-11-01T23:54:42.928Z,99162.47
2022-11-01T23:57:17.520Z,99165.38
2022-11-01T23:59:44.296Z,99162.00
